Time;durP1;ratioP1;P1;durP2;ratioP2;P2;SDS_P1;SDS_P2;PMS_P1;PMS_P2;Temp;Humidity;BMP_temperature;BMP_pressure;BME280_temperature;BME280_humidity;BME280_pressure;Samples;Min_cycle;Max_cycle;Signal;HPM_P1;HPM_P2
2022/03/28 00:00:53;;;;;;;24.40;9.88;;;;;;;3.47;35.64;100297.42;1766240;81;20948;-80
2022/03/28 00:03:19;;;;;;;24.92;10.58;;;;;;;3.39;32.72;100300.23;1763503;80;21538;-80
2022/03/28 00:05:46;;;;;;;27.17;10.75;;;;;;;3.33;35.83;100293.25;1759846;81;21052;-80
2022/03/28 00:08:13;;;;;;;30.97;9.50;;;;;;;3.30;36.32;100288.45;1767246;80;20987;-79
2022/03/28 00:10:39;;;;;;;27.95;11.33;;;;;;;3.27;36.36;100296.96;1757473;81;21023;-80
2022/03/28 00:13:06;;;;;;;23.25;10.65;;;;;;;3.25;37.32;100296.05;1767227;81;21760;-80
2022/03/28 00:15:32;;;;;;;26.55;10.90;;;;;;;3.21;36.36;100299.39;1755553;81;21010;-80
2022/03/28 00:17:59;;;;;;;33.02;11.68;;;;;;;3.17;35.33;100297.16;1764975;81;20956;-80
2022/03/28 00:20:26;;;;;;;27.13;10.35;;;;;;;3.10;36.13;100295.68;1761273;80;21050;-79
2022/03/28 00:22:53;;;;;;;29.67;11.20;;;;;;;3.07;35.95;100284.06;1770423;81;21030;-80
2022/03/28 00:25:19;;;;;;;29.50;11.90;;;;;;;3.07;37.98;100286.62;1759290;80;20999;-79
2022/03/28 00:27:46;;;;;;;30.30;9.85;;;;;;;3.05;35.43;100276.31;1754272;81;21042;-80
2022/03/28 00:30:12;;;;;;;30.45;13.05;;;;;;;3.04;37.73;100274.98;1759811;81;21439;-79
2022/03/28 00:32:39;;;;;;;34.67;12.43;;;;;;;3.00;33.79;100280.45;1755675;80;20971;-79
2022/03/28 00:35:07;;;;;;;32.10;11.80;;;;;;;2.96;34.70;100276.07;1763085;80;21503;-80
2022/03/28 00:37:35;;;;;;;32.28;12.73;;;;;;;2.93;34.54;100273.02;1757729;81;21503;-80
2022/03/28 00:40:02;;;;;;;31.80;12.47;;;;;;;2.94;36.45;100277.31;1759044;81;21502;-80
2022/03/28 00:42:29;;;;;;;33.53;13.32;;;;;;;2.94;34.62;100281.16;1756211;81;21022;-77
2022/03/28 00:44:56;;;;;;;32.23;13.03;;;;;;;2.95;37.83;100287.20;1767313;79;21050;-78
2022/03/28 00:47:22;;;;;;;35.75;13.50;;;;;;;2.90;34.32;100291.34;1761974;81;20943;-77
2022/03/28 00:49:49;;;;;;;36.25;13.58;;;;;;;2.88;36.29;100284.01;1769948;80;20956;-78
2022/03/28 00:52:16;;;;;;;28.30;12.60;;;;;;;2.90;38.50;100287.48;1761752;79;20979;-78
2022/03/28 00:54:43;;;;;;;34.55;13.50;;;;;;;2.90;37.50;100290.91;1750900;81;21453;-77
2022/03/28 00:57:10;;;;;;;31.70;11.20;;;;;;;2.84;34.92;100296.32;1757356;80;20999;-78
2022/03/28 00:59:38;;;;;;;24.55;11.33;;;;;;;2.77;38.10;100294.89;1772199;80;21018;-80
2022/03/28 01:02:06;;;;;;;25.65;10.53;;;;;;;2.76;38.12;100299.97;1754969;80;20987;-78
2022/03/28 01:04:32;;;;;;;34.08;10.18;;;;;;;2.66;37.38;100289.88;1771678;81;20972;-78
2022/03/28 01:06:59;;;;;;;25.92;10.38;;;;;;;2.57;38.89;100290.52;1767772;79;20983;-78
2022/03/28 01:09:25;;;;;;;24.32;10.00;;;;;;;2.55;35.33;100292.17;1770329;80;21665;-79
2022/03/28 01:11:53;;;;;;;29.52;12.10;;;;;;;2.50;36.13;100292.88;1767081;80;21038;-78
2022/03/28 01:14:21;;;;;;;27.80;10.05;;;;;;;2.49;38.12;100295.01;1742089;81;21061;-78
2022/03/28 01:19:32;;;;;;;25.72;11.00;;;;;;;2.43;37.35;100296.98;1754957;81;21455;-78
2022/03/28 01:21:59;;;;;;;24.47;9.43;;;;;;;2.41;37.61;100297.36;1769866;79;21030;-78
2022/03/28 01:24:26;;;;;;;25.27;11.10;;;;;;;2.41;38.19;100309.30;1748594;81;21046;-80
2022/03/28 01:26:53;;;;;;;24.55;10.80;;;;;;;2.39;37.68;100304.16;1768706;81;20979;-80
2022/03/28 01:29:20;;;;;;;39.23;11.57;;;;;;;2.36;38.18;100305.34;1765724;81;21334;-80
2022/03/28 01:31:47;;;;;;;38.88;10.98;;;;;;;2.35;37.04;100300.63;1771636;81;21062;-80
2022/03/28 01:34:21;;;;;;;26.65;11.12;;;;;;;2.30;38.70;100300.91;1762654;81;20986;-80
2022/03/28 01:36:48;;;;;;;;;;;;;;;2.26;38.55;100295.66;1760596;81;20988;-78
2022/03/28 01:39:16;;;;;;;36.25;10.48;;;;;;;2.16;35.64;100296.66;1761788;81;20162;-78
2022/03/28 01:41:44;;;;;;;30.80;12.37;;;;;;;2.07;37.85;100298.10;1758857;81;20980;-78
2022/03/28 01:44:12;;;;;;;31.30;10.75;;;;;;;2.04;40.51;100292.48;1762827;81;21400;-80
2022/03/28 01:46:45;;;;;;;57.88;20.75;;;;;;;1.98;36.56;100284.19;1772436;81;21510;-78
2022/03/28 01:49:15;;;;;;;39.90;20.00;;;;;;;1.89;37.84;100281.77;1763487;81;21006;-79
2022/03/28 01:51:42;;;;;;;33.88;14.18;;;;;;;1.78;38.69;100287.46;1772184;80;21030;-77
2022/03/28 01:54:09;;;;;;;30.85;12.55;;;;;;;1.75;37.97;100276.23;1763276;81;21015;-79
2022/03/28 01:56:37;;;;;;;28.23;12.28;;;;;;;1.75;39.96;100281.36;1761889;81;21499;-78
2022/03/28 01:59:06;;;;;;;28.42;11.03;;;;;;;1.76;37.52;100269.88;1763355;81;20975;-77
2022/03/28 02:01:34;;;;;;;28.83;10.78;;;;;;;1.75;39.29;100272.00;1764139;81;20931;-78
2022/03/28 02:04:01;;;;;;;28.60;11.80;;;;;;;1.76;37.52;100273.73;1767443;81;20984;-79
2022/03/28 02:06:29;;;;;;;24.07;10.00;;;;;;;1.82;38.21;100273.47;1756070;81;21578;-79
2022/03/28 02:08:56;;;;;;;24.92;10.45;;;;;;;1.86;38.66;100271.44;1770343;80;21023;-80
2022/03/28 02:11:22;;;;;;;28.40;11.18;;;;;;;1.90;37.88;100276.69;1766461;80;20955;-78
2022/03/28 02:13:49;;;;;;;19.98;9.83;;;;;;;1.92;38.94;100276.75;1773157;80;21503;-78
2022/03/28 02:16:16;;;;;;;27.07;9.98;;;;;;;1.93;37.69;100267.82;1754736;81;22223;-78
2022/03/28 02:18:42;;;;;;;32.30;10.98;;;;;;;1.95;38.91;100261.42;1772996;80;20983;-78
2022/03/28 02:21:09;;;;;;;38.90;10.13;;;;;;;1.91;38.33;100266.02;1763315;80;21136;-78
2022/03/28 02:23:36;;;;;;;29.80;11.38;;;;;;;1.90;38.92;100262.59;1772937;81;21543;-78
2022/03/28 02:26:03;;;;;;;25.48;10.38;;;;;;;1.91;40.01;100264.34;1767176;81;20998;-77
2022/03/28 02:28:30;;;;;;;30.12;11.43;;;;;;;1.89;39.19;100267.28;1769252;80;21023;-80
2022/03/28 02:30:57;;;;;;;32.73;12.98;;;;;;;1.88;39.64;100271.08;1766843;80;21415;-79
2022/03/28 02:33:23;;;;;;;37.08;14.05;;;;;;;1.84;40.77;100273.95;1761898;81;20995;-80
2022/03/28 02:35:51;;;;;;;31.25;11.75;;;;;;;1.78;41.38;100274.64;1769086;81;21010;-81
2022/03/28 02:38:17;;;;;;;22.52;9.78;;;;;;;1.63;42.01;100271.62;1756578;80;21015;-78
2022/03/28 02:40:44;;;;;;;28.85;9.53;;;;;;;1.55;42.88;100264.11;1764138;81;21009;-78
2022/03/28 02:43:11;;;;;;;21.75;8.58;;;;;;;1.48;41.28;100259.65;1760658;80;21488;-77
2022/03/28 02:45:38;;;;;;;26.02;10.38;;;;;;;1.37;42.31;100265.70;1764289;79;21098;-78
2022/03/28 02:48:05;;;;;;;24.43;10.65;;;;;;;1.32;43.68;100259.59;1763152;81;21023;-79
2022/03/28 02:50:34;;;;;;;32.17;15.23;;;;;;;1.25;41.93;100271.73;1773069;80;21542;-78
2022/03/28 02:53:01;;;;;;;34.65;14.75;;;;;;;1.18;40.98;100266.84;1757909;80;21475;-77
2022/03/28 02:55:27;;;;;;;21.02;9.03;;;;;;;1.14;44.48;100266.29;1745912;81;20984;-78
2022/03/28 02:57:54;;;;;;;23.62;10.10;;;;;;;1.08;38.52;100268.24;1769827;81;21010;-78
2022/03/28 03:00:24;;;;;;;22.60;9.60;;;;;;;1.03;43.85;100262.50;1773185;81;20964;-79
2022/03/28 03:02:51;;;;;;;29.27;9.93;;;;;;;0.98;40.96;100261.95;1760437;80;21543;-77
2022/03/28 03:05:18;;;;;;;33.95;11.50;;;;;;;0.97;42.08;100260.20;1762258;81;20983;-78
2022/03/28 03:07:44;;;;;;;47.85;13.83;;;;;;;0.93;40.00;100254.52;1762351;81;21514;-78
2022/03/28 03:10:11;;;;;;;37.55;13.28;;;;;;;0.86;41.84;100261.56;1764317;80;21023;-79
2022/03/28 03:12:37;;;;;;;30.88;11.12;;;;;;;0.81;44.15;100257.97;1766432;80;21550;-78
2022/03/28 03:15:05;;;;;;;28.63;11.37;;;;;;;0.75;43.73;100268.87;1758092;81;20959;-77
2022/03/28 03:17:31;;;;;;;33.02;11.25;;;;;;;0.74;44.80;100256.05;1767622;80;20990;-78
2022/03/28 03:19:58;;;;;;;42.20;20.50;;;;;;;0.75;44.61;100255.20;1755846;81;20963;-77
2022/03/28 03:22:25;;;;;;;39.55;13.13;;;;;;;0.77;43.46;100267.64;1771846;80;21027;-79
2022/03/28 03:24:52;;;;;;;44.85;14.80;;;;;;;0.75;41.08;100266.73;1756059;81;20995;-78
2022/03/28 03:27:18;;;;;;;40.65;13.32;;;;;;;0.68;45.04;100262.24;1772963;80;21042;-77
2022/03/28 03:29:45;;;;;;;40.63;15.63;;;;;;;0.63;43.62;100258.64;1753273;81;21460;-78
2022/03/28 03:32:11;;;;;;;42.95;15.15;;;;;;;0.58;42.32;100263.20;1772152;81;21328;-77
2022/03/28 03:34:38;;;;;;;33.20;11.55;;;;;;;0.54;43.64;100265.61;1760542;81;20991;-76
2022/03/28 03:37:06;;;;;;;29.45;12.07;;;;;;;0.46;43.66;100266.63;1767973;81;21452;-76
2022/03/28 03:39:35;;;;;;;33.73;10.93;;;;;;;0.38;45.01;100256.55;1765113;80;20955;-77
2022/03/28 03:42:02;;;;;;;30.08;11.85;;;;;;;0.33;42.72;100256.78;1765010;81;20995;-78
2022/03/28 03:44:29;;;;;;;28.38;9.33;;;;;;;0.28;44.58;100261.74;1763794;81;21588;-80
2022/03/28 03:46:56;;;;;;;25.25;9.35;;;;;;;0.24;44.80;100251.33;1770865;81;21002;-77
2022/03/28 03:49:23;;;;;;;29.42;10.60;;;;;;;0.23;43.58;100245.77;1768320;81;20959;-77
2022/03/28 03:51:49;;;;;;;26.85;10.63;;;;;;;0.22;46.65;100247.85;1771885;80;20995;-76
2022/03/28 03:54:16;;;;;;;27.73;10.60;;;;;;;0.23;44.90;100250.47;1770537;81;21007;-77
2022/03/28 03:56:43;;;;;;;37.23;12.58;;;;;;;0.27;43.87;100252.31;1755112;81;21487;-77
2022/03/28 03:59:10;;;;;;;41.37;12.15;;;;;;;0.31;45.95;100255.86;1765033;81;20988;-78
2022/03/28 04:01:36;;;;;;;34.35;12.37;;;;;;;0.35;46.23;100251.30;1760192;81;20991;-78
2022/03/28 04:04:03;;;;;;;34.55;10.88;;;;;;;0.42;46.50;100253.27;1762290;81;21034;-78
2022/03/28 04:06:30;;;;;;;41.80;14.47;;;;;;;0.46;46.26;100246.16;1763935;81;20979;-77
2022/03/28 04:08:57;;;;;;;62.93;18.90;;;;;;;0.51;48.37;100252.28;1760108;80;21007;-77
2022/03/28 04:11:24;;;;;;;42.93;15.45;;;;;;;0.49;47.72;100252.64;1763555;80;20944;-78
2022/03/28 04:13:51;;;;;;;55.25;16.97;;;;;;;0.48;45.88;100262.81;1762290;81;21546;-77
2022/03/28 04:16:17;;;;;;;31.30;11.03;;;;;;;0.44;47.33;100268.27;1772953;81;20971;-77
2022/03/28 04:18:44;;;;;;;24.70;11.20;;;;;;;0.40;45.10;100270.26;1773076;81;21530;-78
2022/03/28 04:21:11;;;;;;;24.77;9.75;;;;;;;0.31;48.73;100266.09;1768179;81;20967;-78
2022/03/28 04:23:38;;;;;;;29.15;9.80;;;;;;;0.30;47.89;100268.16;1758411;81;21510;-78
2022/03/28 04:26:04;;;;;;;30.05;11.25;;;;;;;0.28;46.24;100271.98;1770072;81;20944;-78
2022/03/28 04:28:31;;;;;;;27.77;10.70;;;;;;;0.29;46.49;100271.56;1757040;81;21432;-77
2022/03/28 04:30:58;;;;;;;26.07;11.30;;;;;;;0.31;47.26;100269.92;1771976;81;20999;-76
2022/03/28 04:33:25;;;;;;;26.15;10.43;;;;;;;0.30;44.92;100267.78;1759622;81;21459;-78
2022/03/28 04:35:52;;;;;;;30.35;12.10;;;;;;;0.30;47.46;100271.63;1771639;81;20991;-77
2022/03/28 04:38:19;;;;;;;32.42;10.25;;;;;;;0.29;46.74;100273.70;1763915;80;20988;-78
2022/03/28 04:40:46;;;;;;;28.40;11.05;;;;;;;0.25;46.87;100263.32;1769059;81;20991;-78
2022/03/28 04:43:12;;;;;;;42.62;13.58;;;;;;;0.25;46.29;100273.55;1757103;80;21043;-78
2022/03/28 04:45:39;;;;;;;38.98;12.20;;;;;;;0.27;46.49;100273.19;1770032;79;21062;-78
2022/03/28 04:48:06;;;;;;;54.05;21.00;;;;;;;0.29;47.93;100279.23;1761758;81;20971;-78
2022/03/28 04:50:33;;;;;;;44.40;15.15;;;;;;;0.34;46.85;100273.88;1765741;81;20991;-78
2022/03/28 04:53:00;;;;;;;31.20;13.78;;;;;;;0.42;49.17;100274.13;1763797;81;21094;-80
2022/03/28 04:55:27;;;;;;;49.83;15.63;;;;;;;0.48;48.51;100280.73;1761385;81;20971;-80
2022/03/28 04:57:54;;;;;;;34.60;12.78;;;;;;;0.55;46.92;100282.27;1769108;81;21027;-78
2022/03/28 05:00:21;;;;;;;41.25;17.32;;;;;;;0.65;47.63;100274.92;1754352;81;21003;-79
2022/03/28 05:02:48;;;;;;;53.35;14.20;;;;;;;0.69;45.65;100278.91;1761295;81;21007;-77
2022/03/28 05:05:14;;;;;;;38.35;14.73;;;;;;;0.75;46.07;100275.69;1754717;81;21066;-78
2022/03/28 05:07:41;;;;;;;42.30;13.78;;;;;;;0.87;43.92;100269.69;1765415;81;21039;-78
2022/03/28 05:10:09;;;;;;;42.90;13.32;;;;;;;0.95;45.21;100269.52;1771099;80;20975;-78
2022/03/28 05:12:36;;;;;;;54.25;16.12;;;;;;;1.08;46.43;100273.78;1773666;81;21126;-79
2022/03/28 05:15:04;;;;;;;67.12;16.02;;;;;;;1.18;45.64;100274.53;1764429;81;20955;-78
2022/03/28 05:17:32;;;;;;;62.60;18.73;;;;;;;1.26;46.27;100273.08;1773335;81;21014;-80
2022/03/28 05:20:00;;;;;;;52.53;16.42;;;;;;;1.32;44.58;100278.39;1759491;81;21471;-79
2022/03/28 05:22:27;;;;;;;54.50;18.50;;;;;;;1.37;46.33;100273.39;1764810;80;20983;-79
2022/03/28 05:24:55;;;;;;;49.20;17.25;;;;;;;1.38;47.10;100272.17;1765123;80;21019;-80
2022/03/28 05:27:22;;;;;;;70.75;18.17;;;;;;;1.45;46.83;100274.91;1766249;81;21035;-80
2022/03/28 05:29:49;;;;;;;66.70;19.70;;;;;;;1.52;46.45;100272.59;1752731;81;21526;-81
2022/03/28 05:32:16;;;;;;;66.25;18.02;;;;;;;1.56;44.53;100279.97;1755429;81;20980;-81
2022/03/28 05:34:43;;;;;;;63.50;21.60;;;;;;;1.58;46.30;100277.03;1750418;81;20979;-78
2022/03/28 05:37:13;;;;;;;52.50;21.33;;;;;;;1.65;45.17;100280.64;1765826;81;20956;-79
2022/03/28 05:39:42;;;;;;;54.27;19.62;;;;;;;1.69;45.04;100274.39;1754659;81;21098;-81
2022/03/28 05:42:10;;;;;;;52.88;17.40;;;;;;;1.79;44.29;100280.23;1763627;79;21112;-80
2022/03/28 05:44:38;;;;;;;41.75;16.50;;;;;;;1.89;42.72;100280.09;1765256;81;21463;-80
2022/03/28 05:47:06;;;;;;;55.15;16.97;;;;;;;1.91;43.18;100276.27;1769773;81;21042;-81
2022/03/28 05:49:32;;;;;;;44.58;17.32;;;;;;;1.96;43.86;100279.43;1728051;83;21544;-81
2022/03/28 05:52:00;;;;;;;39.27;15.98;;;;;;;2.06;43.38;100276.72;1711033;83;20980;-80
2022/03/28 05:54:27;;;;;;;49.35;17.17;;;;;;;2.16;42.74;100277.42;1704073;83;21044;-81
2022/03/28 05:56:55;;;;;;;44.25;16.60;;;;;;;2.25;43.10;100272.09;1709960;83;21083;-81
2022/03/28 05:59:22;;;;;;;61.45;24.52;;;;;;;2.34;43.00;100265.51;1718373;82;21519;-81
2022/03/28 06:01:48;;;;;;;52.08;17.65;;;;;;;2.42;42.95;100269.99;1713167;83;21008;-80
2022/03/28 06:04:15;;;;;;;68.55;18.87;;;;;;;2.53;41.37;100278.44;1712956;82;21263;-80
2022/03/28 06:06:42;;;;;;;51.80;16.77;;;;;;;2.61;42.86;100271.33;1709545;82;21036;-81
2022/03/28 06:09:09;;;;;;;32.17;14.93;;;;;;;2.72;42.16;100263.07;1713986;83;21020;-81
2022/03/28 06:11:35;;;;;;;44.67;15.68;;;;;;;2.85;42.30;100262.12;1714309;82;21099;-84
2022/03/28 06:14:04;;;;;;;44.55;15.90;;;;;;;2.96;42.86;100264.13;1705235;83;21052;-82
2022/03/28 06:16:30;;;;;;;35.30;15.90;;;;;;;3.02;41.77;100262.52;1721959;83;20983;-83
2022/03/28 06:18:57;;;;;;;40.95;16.67;;;;;;;3.10;41.24;100256.71;1710738;83;21004;-82
2022/03/28 06:21:24;;;;;;;42.58;16.37;;;;;;;3.22;41.00;100261.70;1706485;82;21058;-85
2022/03/28 06:23:50;;;;;;;48.25;16.97;;;;;;;3.31;41.74;100255.50;1699255;83;21291;-82
2022/03/28 06:26:17;;;;;;;53.28;18.40;;;;;;;3.39;41.27;100254.83;1731176;80;21027;-82
2022/03/28 06:28:49;;;;;;;43.90;15.83;;;;;;;3.45;41.49;100252.81;1709399;82;21019;-82
2022/03/28 06:31:16;;;;;;;40.90;15.53;;;;;;;3.49;40.27;100251.19;1709772;81;21067;-83
2022/03/28 06:33:42;;;;;;;37.15;14.85;;;;;;;3.49;41.39;100255.91;1712495;83;21051;-82
2022/03/28 06:36:10;;;;;;;40.05;15.10;;;;;;;3.50;40.93;100249.05;1706865;83;21007;-84
2022/03/28 06:38:37;;;;;;;36.35;13.50;;;;;;;3.59;40.48;100246.27;1699042;83;21032;-84
2022/03/28 06:41:05;;;;;;;36.53;14.85;;;;;;;3.64;40.36;100245.49;1721149;83;21013;-86
2022/03/28 06:43:32;;;;;;;28.15;13.28;;;;;;;3.66;39.75;100248.97;1730330;83;21016;-86
2022/03/28 06:46:00;;;;;;;42.15;14.75;;;;;;;3.70;40.22;100249.09;1698015;84;21759;-84
2022/03/28 06:48:26;;;;;;;76.10;18.80;;;;;;;3.82;39.38;100240.75;1709275;83;21043;-82
2022/03/28 06:50:53;;;;;;;49.08;15.80;;;;;;;3.88;40.00;100239.98;1686100;80;21552;-87
2022/03/28 06:53:20;;;;;;;32.55;13.03;;;;;;;3.98;40.01;100235.08;1667174;84;21022;-85
2022/03/28 06:55:46;;;;;;;29.72;13.43;;;;;;;4.13;39.50;100235.78;1669521;85;21421;-88
2022/03/28 06:58:13;;;;;;;35.50;13.30;;;;;;;4.25;39.01;100244.16;1666238;85;21056;-88
2022/03/28 07:00:39;;;;;;;45.73;14.90;;;;;;;4.31;38.17;100249.84;1669439;85;21071;-88
2022/03/28 07:03:07;;;;;;;32.80;13.05;;;;;;;4.33;37.92;100243.87;1670167;85;21059;-87
2022/03/28 07:05:35;;;;;;;36.50;13.60;;;;;;;4.44;37.59;100251.81;1665632;85;21103;-83
2022/03/28 07:08:02;;;;;;;33.85;12.90;;;;;;;4.55;37.44;100256.72;1661206;85;21060;-83
2022/03/28 07:10:28;;;;;;;40.65;13.80;;;;;;;4.65;37.06;100258.18;1675757;85;20989;-83
2022/03/28 07:12:55;;;;;;;39.83;14.50;;;;;;;4.70;36.57;100253.56;1668797;85;21029;-83
2022/03/28 07:15:23;;;;;;;41.15;13.28;;;;;;;4.75;35.83;100257.48;1667075;85;21065;-82
2022/03/28 07:17:56;;;;;;;35.98;14.70;;;;;;;4.61;36.32;100210.89;1673195;85;21076;-84
2022/03/28 07:20:30;;;;;;;33.30;12.45;;;;;;;4.97;36.05;100259.61;1629212;85;21641;-84
2022/03/28 07:22:59;;;;;;;39.53;13.85;;;;;;;5.10;35.66;100264.95;1656320;83;21073;-84
2022/03/28 07:27:59;;;;;;;27.62;11.90;;;;;;;5.44;35.61;100254.71;1674564;84;21083;-86
2022/03/28 07:30:28;;;;;;;29.12;12.35;;;;;;;5.61;35.33;100258.83;1710522;81;21165;-84
2022/03/28 07:32:55;;;;;;;32.30;12.30;;;;;;;5.75;35.28;100257.73;1737684;81;21101;-84
2022/03/28 07:35:22;;;;;;;32.70;12.55;;;;;;;5.91;35.34;100261.37;1746127;81;21056;-84
2022/03/28 07:37:50;;;;;;;26.12;12.00;;;;;;;6.07;34.02;100254.28;1747159;81;21023;-84
2022/03/28 07:40:17;;;;;;;29.52;12.68;;;;;;;6.22;34.67;100251.42;1769597;80;21027;-82
2022/03/28 07:42:44;;;;;;;48.28;12.65;;;;;;;6.29;33.72;100250.66;1730916;81;20937;-82
2022/03/28 07:45:14;;;;;;;27.93;11.57;;;;;;;6.42;33.51;100249.91;1749637;81;21066;-82
2022/03/28 07:47:42;;;;;;;29.98;10.90;;;;;;;6.55;33.82;100241.88;1762347;80;21009;-84
2022/03/28 07:50:10;;;;;;;23.00;10.93;;;;;;;6.70;33.30;100238.55;1665221;81;21117;-88
2022/03/28 07:52:37;;;;;;;28.20;11.55;;;;;;;6.83;33.18;100235.23;1654461;85;21017;-83
2022/03/28 07:55:06;;;;;;;33.15;11.18;;;;;;;6.94;32.53;100227.14;1676712;85;20998;-84
2022/03/28 07:57:37;;;;;;;28.98;10.93;;;;;;;7.10;31.47;100224.65;1669857;84;20996;-85
2022/03/28 08:00:10;;;;;;;31.75;12.93;;;;;;;7.23;32.79;100229.06;1771010;80;21050;-84
2022/03/28 08:02:39;;;;;;;76.67;14.05;;;;;;;7.42;31.19;100227.88;1725324;78;21906;-89
2022/03/28 08:05:08;;;;;;;29.30;12.18;;;;;;;7.55;30.21;100225.36;1715017;82;21015;-87
2022/03/28 08:07:36;;;;;;;23.20;9.93;;;;;;;7.71;31.16;100214.66;1710914;84;21080;-83
2022/03/28 08:10:06;;;;;;;37.85;10.85;;;;;;;7.88;29.80;100213.45;1723237;82;21045;-83
2022/03/28 08:12:36;;;;;;;49.80;10.75;;;;;;;8.04;31.10;100207.89;1728076;82;21693;-82
2022/03/28 08:15:03;;;;;;;27.45;11.73;;;;;;;8.18;30.71;100205.34;1710969;82;21032;-82
2022/03/28 08:17:30;;;;;;;33.13;12.40;;;;;;;8.29;28.92;100189.36;1711895;82;21029;-83
2022/03/28 08:19:56;;;;;;;23.02;11.10;;;;;;;8.50;30.18;100201.53;1757599;80;21018;-83
2022/03/28 08:22:23;;;;;;;31.40;12.58;;;;;;;8.65;30.27;100203.26;1722225;82;21400;-84
2022/03/28 08:24:50;;;;;;;41.28;12.23;;;;;;;8.82;28.61;100199.83;1722118;82;21026;-83
2022/03/28 08:27:27;;;;;;;33.88;11.65;;;;;;;8.95;29.45;100201.12;1697446;80;21020;31
2022/03/28 08:29:54;;;;;;;27.17;10.10;;;;;;;9.10;28.67;100200.66;1658246;86;21119;-92
2022/03/28 08:32:21;;;;;;;25.52;10.65;;;;;;;9.21;28.01;100190.25;1711319;83;21401;-93
2022/03/28 08:34:48;;;;;;;21.90;9.60;;;;;;;9.33;28.64;100185.03;1708243;83;21092;-92
2022/03/28 08:39:56;;;;;;;24.27;10.32;;;;;;;9.61;28.06;100174.15;1684202;84;21042;-94
2022/03/28 08:42:49;;;;;;;20.65;10.20;;;;;;;9.73;28.76;100177.98;1686840;82;21192;-95
2022/03/28 08:45:17;;;;;;;26.42;10.10;;;;;;;9.88;28.19;100164.50;1717235;78;21124;-93
2022/03/28 08:50:50;;;;;;;25.55;10.23;;;;;;;10.12;27.63;100156.55;1830675;78;21575;-93
2022/03/28 08:53:18;;;;;;;27.90;11.20;;;;;;;10.30;27.08;100151.70;1740343;79;21164;-94
2022/03/28 08:55:46;;;;;;;22.32;10.90;;;;;;;10.41;27.24;100152.94;1737694;80;21098;-92
2022/03/28 08:58:14;;;;;;;23.75;10.72;;;;;;;10.55;27.48;100154.13;1703704;80;21092;-94
2022/03/28 09:00:42;;;;;;;23.50;10.00;;;;;;;10.69;26.97;100151.42;1761829;80;21139;-96
2022/03/28 09:03:10;;;;;;;24.32;9.68;;;;;;;10.75;27.19;100148.31;1773906;78;21163;-93
2022/03/28 09:05:39;;;;;;;23.05;9.88;;;;;;;10.89;26.60;100145.59;1757530;80;21063;-94
2022/03/28 09:08:10;;;;;;;26.77;10.48;;;;;;;11.02;26.21;100146.34;1768169;77;21159;-93
2022/03/28 09:10:37;;;;;;;20.23;9.93;;;;;;;11.10;25.95;100141.03;1757384;78;21047;-94
2022/03/28 09:13:09;;;;;;;23.95;10.93;;;;;;;11.22;26.94;100138.33;1746625;82;21011;-93
2022/03/28 09:15:57;;;;;;;31.57;12.35;;;;;;;11.38;26.82;100130.31;1698703;79;21094;-93
2022/03/28 09:18:30;;;;;;;26.77;11.10;;;;;;;11.51;26.54;100131.90;1738194;80;21196;-95
2022/03/28 09:24:10;;;;;;;23.27;10.32;;;;;;;11.77;26.58;100115.08;1700162;84;21129;-95
2022/03/28 09:26:37;;;;;;;30.00;11.35;;;;;;;11.89;25.87;100115.78;1689712;79;21137;-93
2022/03/28 09:29:06;;;;;;;26.82;10.88;;;;;;;12.03;26.52;100107.77;1685692;84;21024;-89
2022/03/28 09:31:42;;;;;;;20.60;10.45;;;;;;;12.15;25.45;100102.81;1704904;80;21100;-91
2022/03/28 09:34:13;;;;;;;23.05;11.18;;;;;;;12.27;26.08;100097.85;1700823;84;21121;-82
2022/03/28 09:36:53;;;;;;;31.50;11.60;;;;;;;12.43;26.25;100095.86;1725134;82;21075;-83
2022/03/28 09:39:27;;;;;;;24.85;10.53;;;;;;;12.59;26.28;100089.48;1714876;82;20983;-86
2022/03/28 09:42:05;;;;;;;21.65;10.35;;;;;;;12.73;25.18;100089.23;1723653;82;21075;-86
2022/03/28 09:44:45;;;;;;;26.93;11.53;;;;;;;12.86;25.72;100085.98;1716949;79;21475;-90
2022/03/28 09:47:22;;;;;;;45.08;17.48;;;;;;;13.02;25.66;100083.94;1784758;80;21722;-85
2022/03/28 09:49:53;;;;;;;22.58;10.70;;;;;;;13.10;24.43;100082.03;1778654;80;21092;-86
2022/03/28 09:52:25;;;;;;;23.85;10.13;;;;;;;13.17;24.38;100073.20;1771299;80;21126;-86
2022/03/28 09:55:00;;;;;;;22.77;11.40;;;;;;;13.30;25.02;100073.38;1767798;79;21091;-88
2022/03/28 09:57:35;;;;;;;23.22;11.28;;;;;;;13.46;24.98;100071.30;1780492;80;21050;-88
2022/03/28 10:00:34;;;;;;;23.87;11.85;;;;;;;13.60;23.44;100065.78;1736403;79;21155;-93
2022/03/28 10:05:54;;;;;;;28.70;11.53;;;;;;;13.78;23.22;100055.36;1714030;82;21082;-91
2022/03/28 10:08:21;;;;;;;25.32;12.15;;;;;;;13.91;23.86;100048.12;1720065;83;21045;-94
2022/03/28 10:10:50;;;;;;;25.62;12.95;;;;;;;14.02;23.55;100035.62;1713918;82;21054;-90
2022/03/28 10:13:18;;;;;;;23.80;12.33;;;;;;;14.12;23.33;100033.64;1735930;82;21011;-82
2022/03/28 10:15:45;;;;;;;22.75;12.20;;;;;;;14.22;23.23;100030.36;1699838;83;21043;-85
2022/03/28 10:18:11;;;;;;;27.15;12.95;;;;;;;14.37;23.64;100026.52;1740570;79;21087;-89
2022/03/28 10:20:42;;;;;;;29.77;13.72;;;;;;;14.52;22.42;100011.70;1747727;81;20971;-87
2022/03/28 10:23:16;;;;;;;27.55;13.68;;;;;;;14.63;21.61;100011.46;1710129;81;21505;-81
2022/03/28 10:25:43;;;;;;;28.17;13.55;;;;;;;14.71;21.95;100015.58;1737851;81;21046;-82
2022/03/28 10:28:10;;;;;;;33.08;15.13;;;;;;;14.81;21.25;100008.33;1742351;81;21097;-86
2022/03/28 10:30:37;;;;;;;25.95;13.25;;;;;;;15.04;21.92;99995.02;1675912;82;21010;-85
2022/03/28 10:33:18;;;;;;;25.08;13.08;;;;;;;15.16;21.37;99997.31;1700032;79;21095;-88
2022/03/28 10:36:21;;;;;;;28.15;14.98;;;;;;;15.27;21.54;99989.97;1713960;78;21108;-93
2022/03/28 10:38:51;;;;;;;25.85;12.53;;;;;;;15.37;21.53;99986.62;1703601;80;21262;-87
2022/03/28 10:41:21;;;;;;;28.15;11.97;;;;;;;15.47;20.56;99972.78;1697707;82;21148;-87
2022/03/28 10:43:48;;;;;;;24.07;13.45;;;;;;;15.55;20.27;99967.31;1711065;82;21257;-88
2022/03/28 10:46:16;;;;;;;38.35;17.67;;;;;;;15.67;21.05;99962.98;1770435;78;21122;-90
2022/03/28 10:48:57;;;;;;;24.27;11.43;;;;;;;15.89;20.96;99958.77;1788101;78;20979;-83
2022/03/28 10:51:30;;;;;;;29.60;12.33;;;;;;;16.12;20.30;99953.23;1775916;80;21022;-89
2022/03/28 10:54:05;;;;;;;20.82;9.45;;;;;;;16.24;20.32;99944.08;1796236;78;21029;-88
2022/03/28 10:56:38;;;;;;;22.50;11.83;;;;;;;16.38;21.05;99943.59;1725706;83;21484;-88
2022/03/28 10:59:16;;;;;;;20.80;10.85;;;;;;;16.51;20.08;99934.34;1710169;83;21038;-86
2022/03/28 11:01:46;;;;;;;27.90;10.78;;;;;;;16.68;20.82;99928.50;1722621;82;21039;-87
2022/03/28 11:04:22;;;;;;;27.75;11.20;;;;;;;16.84;20.54;99924.87;1731415;81;21011;-89
2022/03/28 11:07:06;;;;;;;19.60;9.40;;;;;;;17.07;20.22;99912.19;1736404;82;21695;-86
2022/03/28 11:09:54;;;;;;;17.35;8.33;;;;;;;17.23;17.69;99912.42;1712850;79;21086;-84
2022/03/28 11:12:31;;;;;;;21.52;8.85;;;;;;;17.39;18.26;99906.97;1765007;81;21038;-82
2022/03/28 11:15:09;;;;;;;20.55;8.65;;;;;;;17.59;19.15;99901.37;1764110;80;20958;-84
2022/03/28 11:17:40;;;;;;;21.07;11.00;;;;;;;17.83;18.36;99889.84;1765059;81;21042;-82
2022/03/28 11:20:11;;;;;;;20.80;8.38;;;;;;;17.99;18.80;99886.10;1758780;80;21019;-84
2022/03/28 11:22:44;;;;;;;14.78;7.92;;;;;;;18.05;17.04;99876.63;1760276;80;21055;-88
2022/03/28 11:25:52;;;;;;;17.90;8.08;;;;;;;18.20;17.54;99867.66;1763729;81;21097;-85
2022/03/28 11:28:28;;;;;;;14.80;7.45;;;;;;;18.25;16.92;99861.74;1766607;81;21143;-86
2022/03/28 11:31:07;;;;;;;16.95;8.50;;;;;;;18.55;17.47;99846.33;1745375;81;20963;-88
2022/03/28 11:33:42;;;;;;;18.62;8.08;;;;;;;18.88;15.66;99846.58;1766589;81;21057;-88
2022/03/28 11:36:19;;;;;;;19.67;8.30;;;;;;;19.45;16.54;99831.93;1757222;81;21017;-91
2022/03/28 11:38:52;;;;;;;17.15;8.63;;;;;;;20.26;15.35;99833.52;1765291;81;21015;-88
2022/03/28 11:41:23;;;;;;;18.60;9.98;;;;;;;21.11;16.00;99829.35;1769193;81;20970;-88